Ostrowiec Swietokrzyski, Poland
Current Conditions -  °F | °C
As of 1:00 AM on Wednesday 26 Nov 2014 (Local Time) from EPLB Reporting Station
Light Rain Light Rain  
Wind Chill: 34°   Ceiling: 700
Heat Index: 34°   Visibility: 2.1mi
Dew Point: 34°   Wind: 1mph
Humidity: 100%   Direction: NA
Pressure: 30.33"   Gusts: NA
Location:  50.95°N, 21.39°E
Report Text: EPLB 252300Z VRB01KT 3500 -RA BR OVC007 01/01 Q1027
Loading
Personal Weather Stations






























Interactive Weather Map New forecast layout! Learn more

10-Day Weather Forecast

Advertisements
Track Severe Weather on mobile